Afton, Michigan
Current Conditions -  °F | °C
As of 6:16 AM on Thursday 23 Oct 2014 (Local Time) from KSLH Reporting Station
Clear Clear  
Wind Chill: 32°   Ceiling: Unl
Heat Index: 32°   Visibility: 10mi
Dew Point: 32°   Wind: 3mph
Humidity: 99%   Direction: 200°SSW
Pressure: 30.23"   Gusts: NA
Location:  45.36°N, 84.47°W
Report Text: KSLH 231016Z AUTO 20003KT 10SM CLR 00/00 A3023 RMK AO2 T00020000
Loading
Personal Weather Stations






























Interactive Weather Map New forecast layout! Learn more

10-Day Weather Forecast

Advertisements
Track Severe Weather on mobile